Terminal Aerodrome Forecast
Issued by NWS Upton, NY

Current Version | Previous Version | Text Only | Print | Product List | Glossary On
Versions: 1 2 3 4 5 6 7 8 9 10 11 12 13 14 15 16 17 18 19 20 21 22 23 24 25 26 27
000
FTUS41 KOKX 020500 RRA
TAFISP
TAF
KISP 020547Z 0206/0306 02010KT 6SM -RADZ SCT008 OVC015
     FM021300 02015G22KT P6SM OVC015
     FM021700 02014G20KT P6SM BKN025
     FM022000 03012KT P6SM BKN025
     FM022300 04008KT P6SM SCT025 BKN080
     FM030300 04007KT P6SM SCT025=

USA.gov is the U.S. government's official web portal to all federal, state and local government web resources and services.